Meteo Giornale » Osservazioni meteo Austria » Vienna-Schwechat

ore: 12:50 - Osservazioni Meteo Vienna-Schwechat
Lat. 48° 7' N Lon. 16° 34' E Alt. 183 metri s.l.m.

nuvoloso Europe/Vienna

17 °C

Nuvoloso

Temp. 24 Ore

5 °C

18 °C

Sud-Est

16.7 Km/h

Dew point 11 °C

Umidità 67 %

Visibilità  10 Km

Il sole sorge alle ore 07:14

Il sole tramonta alle ore 18:03

Data e Ora Cielo e Fenomeni T °C DP °C Um. % Pres. hPa Vis. km Vento km/h
Oggi h: 12:50 nuvoloso Nuvoloso 17 11 67 1018 10 SE 16.7
Oggi h: 12:20 nuvoloso Nuvoloso 15 12 82 1018 10 SE 9.3
Oggi h: 11:50 molto_nuvoloso Molto Nuvoloso 12 10 87 1018 10 E/SE 11.1
Oggi h: 11:20 molto_nuvoloso Molto Nuvoloso 11 10 93 1018 10 S/SE 18.5
Oggi h: 10:50 molto_nuvoloso Molto Nuvoloso 10 9 93 1019 10 SE 16.7
Oggi h: 10:20 molto_nuvoloso Molto Nuvoloso 9 9 100 1019 8 SE 14.8
Oggi h: 09:50 foschia Foschia 9 8 93 1019 5 E/SE 11.1
Oggi h: 09:20 nebbia Banco di Nebbia 8 8 100 1018 0.55 SE 11.1
Oggi h: 08:50 nebbia Banco di Nebbia 8 8 100 1018 0.5 SE 13
Oggi h: 08:20 nebbia Banco di Nebbia 7 7 100 1018 0.55 SE 9.3
Oggi h: 07:50 foschia Foschia 7 7 100 1018 1 E/SE 9.3
Oggi h: 07:20 nebbia Banco di Nebbia Foschia 6 6 100 1018 1 N 5.5
Oggi h: 06:50 foschia Foschia 6 6 100 1017 5 E/SE 7.4
Oggi h: 05:50 foschia Foschia 7 6 93 1017 1 SE 9.3
Oggi h: 05:20 nebbia Banco di Nebbia 5 5 100 1017 0.9 S 9.3
Oggi h: 04:50 foschia Foschia 6 6 100 1017 1 S/SE 9.3
Oggi h: 04:20 foschia Foschia 6 6 100 1017 3 S 11.1
Oggi h: 03:50 sereno Sereno 7 6 93 1018 10 S/SE 11.1
Oggi h: 03:20 foschia Foschia 7 7 100 1018 5 S/SE 9.3
Oggi h: 02:50 sereno Sereno 7 6 93 1018 10 S/SE 7.4
Oggi h: 02:20 sereno Sereno 8 6 87 1018 10 N 5.5
Oggi h: 01:50 sereno Sereno 7 5 87 1018 10 N 3.7
Oggi h: 01:20 sereno Sereno 7 6 93 1018 10 N 3.7
Oggi h: 00:50 sereno Sereno 8 6 87 1018 10 N 3.7
Oggi h: 00:20 sereno Sereno 10 7 81 1018 10 N 3.7
Ieri h: 23:50 sereno Sereno 10 8 87 1018 10 SE 7.4
Ieri h: 23:20 sereno Sereno 9 7 87 1018 10 S/SE 9.3
Ieri h: 22:50 sereno Sereno 9 7 87 1018 10 S/SE 9.3
Ieri h: 22:20 sereno Sereno 10 8 87 1019 10 S 11.1
Ieri h: 21:50 sereno Sereno 9 7 87 1018 10 S 11.1
Ieri h: 20:50 sereno Sereno 10 7 81 1018 10 S 13
Ieri h: 20:20 sereno Sereno 11 6 71 1018 10 S 13
Ieri h: 19:50 sereno Sereno 12 6 66 1018 10 S 11.1
Ieri h: 19:20 sereno Sereno 10 5 71 1018 10 S/SE 7.4
Ieri h: 18:50 sereno Sereno 12 5 62 1018 10 S 7.4
Ieri h: 17:50 sereno Sereno 15 6 54 1017 10 NO 13
Ieri h: 17:20 sereno Sereno 17 6 48 1017 10 NO 16.7
Ieri h: 16:50 sereno Sereno 18 5 42 1017 10 O/NO 20.3
Ieri h: 16:20 sereno Sereno 18 6 45 1017 10 O/NO 16.7
Ieri h: 15:50 sereno Sereno 18 7 48 1017 10 O/NO 18.5
Ieri h: 15:20 sereno Sereno 18 6 45 1017 10 O/NO 25.9
Ieri h: 14:50 nuvoloso Nuvoloso 17 7 51 1017 10 O/NO 25.9
Ieri h: 14:20 molto_nuvoloso Molto Nuvoloso 17 7 51 1017 10 NO 25.9
Ieri h: 13:50 molto_nuvoloso Molto Nuvoloso 16 7 55 1017 10 NO 25.9